Time;durP1;ratioP1;P1;durP2;ratioP2;P2;SDS_P1;SDS_P2;PMS_P1;PMS_P2;Temp;Humidity;BMP_temperature;BMP_pressure;BME280_temperature;BME280_humidity;BME280_pressure;Samples;Min_cycle;Max_cycle;Signal;HPM_P1;HPM_P2
2022/06/08 00:01:43;;;;;;;19.57;14.23;;;20.60;99.90;;;;;;5088862;28;20182;-73
2022/06/08 00:04:13;;;;;;;19.77;15.50;;;20.50;99.90;;;;;;5050102;28;20229;-73
2022/06/08 00:06:39;;;;;;;20.20;15.40;;;20.50;99.90;;;;;;5044733;28;20254;-73
2022/06/08 00:09:06;;;;;;;20.93;15.63;;;20.50;99.90;;;;;;5092697;28;20210;-74
2022/06/08 00:11:32;;;;;;;19.77;14.70;;;20.60;99.90;;;;;;5073666;28;20178;-73
2022/06/08 00:14:00;;;;;;;23.93;14.53;;;20.50;99.90;;;;;;5102604;28;20210;-73
2022/06/08 00:16:26;;;;;;;23.07;14.93;;;20.60;99.90;;;;;;5057949;28;20662;-73
2022/06/08 00:18:52;;;;;;;19.30;14.17;;;20.60;99.90;;;;;;5091931;28;20174;-73
2022/06/08 00:21:19;;;;;;;21.23;14.13;;;20.50;99.90;;;;;;5090104;28;20274;-73
2022/06/08 00:23:46;;;;;;;17.13;15.33;;;20.50;99.90;;;;;;5090298;28;21048;-73
2022/06/08 00:26:13;;;;;;;23.70;16.27;;;20.50;99.90;;;;;;5053470;28;20185;-73
2022/06/08 00:28:39;;;;;;;21.87;16.03;;;20.50;99.90;;;;;;5064234;28;20186;-73
2022/06/08 00:31:06;;;;;;;22.17;16.30;;;20.50;99.90;;;;;;5057901;28;20282;-73
2022/06/08 00:33:33;;;;;;;19.43;16.90;;;20.50;99.90;;;;;;5071803;28;20185;-73
2022/06/08 00:36:01;;;;;;;20.17;16.53;;;20.50;99.90;;;;;;5081107;28;20583;-73
2022/06/08 00:38:28;;;;;;;22.37;17.27;;;20.50;99.90;;;;;;5068838;28;20195;-73
2022/06/08 00:41:29;;;;;;;19.77;17.03;;;20.60;99.90;;;;;;5070850;28;20196;-73
2022/06/08 00:43:57;;;;;;;22.13;17.47;;;20.50;99.90;;;;;;5073859;28;20194;-73
2022/06/08 00:46:24;;;;;;;22.87;17.73;;;20.60;99.90;;;;;;5070945;28;20646;-73
2022/06/08 00:48:59;;;;;;;23.37;17.97;;;20.50;99.90;;;;;;5089125;28;20265;-73
2022/06/08 00:51:27;;;;;;;22.90;18.27;;;20.50;99.90;;;;;;5070240;28;20336;-73
2022/06/08 00:54:07;;;;;;;18.83;16.90;;;20.50;99.90;;;;;;5053103;28;20186;-73
2022/06/08 00:56:43;;;;;;;27.33;18.90;;;20.50;99.90;;;;;;5071915;28;20178;-73
2022/06/08 00:59:11;;;;;;;24.93;18.03;;;20.50;99.90;;;;;;5070505;28;20186;-73
2022/06/08 01:01:38;;;;;;;20.40;17.67;;;20.50;99.90;;;;;;5054190;28;20197;-73
2022/06/08 01:04:15;;;;;;;22.33;17.90;;;20.40;99.90;;;;;;5103316;28;20237;-73
2022/06/08 01:06:47;;;;;;;25.53;18.03;;;20.40;99.90;;;;;;5053974;28;20251;-73
2022/06/08 01:09:34;;;;;;;22.87;18.93;;;20.40;99.90;;;;;;5053443;28;20729;-73
2022/06/08 01:12:25;;;;;;;28.17;17.37;;;20.40;99.90;;;;;;5046468;28;20186;-73
2022/06/08 01:14:51;;;;;;;22.03;17.47;;;20.40;99.90;;;;;;5088729;28;20202;-73
2022/06/08 01:17:20;;;;;;;23.37;18.17;;;20.40;99.90;;;;;;5054074;28;20657;-73
2022/06/08 01:19:49;;;;;;;25.97;18.47;;;20.50;99.90;;;;;;5072856;28;20225;-73
2022/06/08 01:22:19;;;;;;;24.17;17.67;;;20.40;99.90;;;;;;5076952;28;20194;-73
2022/06/08 01:24:51;;;;;;;22.00;17.50;;;20.50;99.90;;;;;;5088547;28;20241;-73
2022/06/08 01:27:40;;;;;;;21.73;18.40;;;20.40;99.90;;;;;;5054182;28;20186;-74
2022/06/08 01:30:29;;;;;;;30.17;18.27;;;20.50;99.90;;;;;;5085539;28;20625;-74
2022/06/08 01:33:41;;;;;;;24.43;18.30;;;20.50;99.90;;;;;;5053677;28;20322;-73
2022/06/08 01:36:26;;;;;;;25.03;17.87;;;20.40;99.90;;;;;;5036071;28;20619;-73
2022/06/08 01:40:00;;;;;;;27.17;17.50;;;20.50;99.90;;;;;;5053585;28;20214;-74
2022/06/08 01:42:49;;;;;;;23.17;18.23;;;20.50;99.90;;;;;;5031754;28;20562;-74
2022/06/08 01:45:33;;;;;;;23.63;18.43;;;20.50;99.90;;;;;;5062215;28;20320;-74
2022/06/08 01:48:38;;;;;;;25.47;18.53;;;20.50;99.90;;;;;;5055093;28;20190;-74
2022/06/08 01:51:47;;;;;;;23.67;19.57;;;20.50;99.90;;;;;;5058704;28;20268;-74
2022/06/08 01:54:34;;;;;;;23.47;19.73;;;20.50;99.90;;;;;;5053982;28;20178;-74
2022/06/08 01:57:59;;;;;;;23.93;20.00;;;20.40;99.90;;;;;;5070953;28;20259;-74
2022/06/08 02:00:35;;;;;;;28.97;20.80;;;20.50;99.90;;;;;;5066030;28;20200;-74
2022/06/08 02:03:27;;;;;;;25.50;22.57;;;20.50;99.90;;;;;;5087245;28;20182;-74
2022/06/08 02:06:33;;;;;;;23.10;20.70;;;20.50;99.90;;;;;;5042462;28;20174;-74
2022/06/08 02:09:16;;;;;;;22.07;18.47;;;20.40;99.90;;;;;;5052639;28;20178;-74
2022/06/08 02:11:50;;;;;;;26.30;18.67;;;20.40;99.90;;;;;;5092478;28;20269;-74
2022/06/08 02:14:26;;;;;;;26.00;20.03;;;20.40;99.90;;;;;;5078314;28;20259;-74
2022/06/08 02:17:10;;;;;;;21.17;18.90;;;20.40;99.90;;;;;;5067343;28;20182;-74
2022/06/08 02:19:44;;;;;;;26.03;18.70;;;20.40;99.90;;;;;;5076957;28;20194;-74
2022/06/08 02:22:36;;;;;;;24.17;19.33;;;20.50;99.90;;;;;;5075883;28;20229;-74
2022/06/08 02:25:13;;;;;;;24.97;19.67;;;20.50;99.90;;;;;;5063014;28;20267;-74
2022/06/08 02:27:51;;;;;;;31.00;20.23;;;20.40;99.90;;;;;;5047193;28;20221;-74
2022/06/08 02:30:24;;;;;;;21.73;18.23;;;20.40;99.90;;;;;;5059889;28;20178;-75
2022/06/08 02:35:58;;;;;;;25.80;18.13;;;20.40;99.90;;;;;;5069866;28;20182;-75
2022/06/08 02:38:35;;;;;;;20.10;17.83;;;20.40;99.90;;;;;;5049277;28;20555;-74
2022/06/08 02:41:09;;;;;;;25.70;16.87;;;20.40;99.90;;;;;;5040718;28;20244;-74
2022/06/08 02:44:07;;;;;;;23.33;19.17;;;20.40;99.90;;;;;;5074722;28;20198;-74
2022/06/08 02:47:04;;;;;;;20.60;18.40;;;20.40;99.90;;;;;;5088762;28;20186;-74
2022/06/08 02:49:37;;;;;;;19.67;17.37;;;20.40;99.90;;;;;;5068382;28;20261;-74
2022/06/08 02:52:16;;;;;;;22.20;16.93;;;20.50;99.90;;;;;;5091615;28;20178;-74
2022/06/08 02:54:43;;;;;;;19.63;17.33;;;20.50;99.90;;;;;;5085467;28;20194;-74
2022/06/08 02:57:37;;;;;;;20.77;18.40;;;20.50;99.90;;;;;;5087377;28;20273;-74
2022/06/08 03:00:19;;;;;;;23.10;18.03;;;20.50;99.90;;;;;;5081104;28;20670;-74
2022/06/08 03:03:19;;;;;;;23.27;18.40;;;20.50;99.90;;;;;;5083984;28;20923;-74
2022/06/08 03:06:00;;;;;;;21.73;17.80;;;20.50;99.90;;;;;;5059888;28;20189;-74
2022/06/08 03:08:33;;;;;;;21.50;18.23;;;20.50;99.90;;;;;;5071885;28;20627;-74
2022/06/08 03:11:05;;;;;;;23.23;16.43;;;20.50;99.90;;;;;;5061240;28;20266;-74
2022/06/08 03:13:41;;;;;;;18.57;15.03;;;20.50;99.90;;;;;;5069658;28;20554;-75
2022/06/08 03:16:22;;;;;;;20.03;16.60;;;20.50;99.90;;;;;;5053093;28;20182;-74
2022/06/08 03:18:49;;;;;;;20.70;17.43;;;20.50;99.90;;;;;;5050054;28;20209;-74
2022/06/08 03:21:15;;;;;;;20.13;16.40;;;20.50;99.90;;;;;;5082569;28;20266;-75
2022/06/08 03:23:41;;;;;;;19.73;16.90;;;20.50;99.90;;;;;;5090381;28;20260;-74
2022/06/08 03:26:08;;;;;;;21.30;17.03;;;20.50;99.90;;;;;;5069849;28;20233;-74
2022/06/08 03:28:34;;;;;;;18.77;16.33;;;20.50;99.90;;;;;;5054740;28;20235;-74
2022/06/08 03:31:00;;;;;;;23.40;17.00;;;20.50;99.90;;;;;;5072937;28;20189;-74
2022/06/08 03:33:27;;;;;;;21.37;17.77;;;20.50;99.90;;;;;;5075714;28;20213;-74
2022/06/08 03:36:00;;;;;;;22.90;17.77;;;20.50;99.90;;;;;;5053700;28;20194;-74
2022/06/08 03:38:26;;;;;;;20.50;18.20;;;20.50;99.90;;;;;;5042527;28;20191;-75
2022/06/08 03:40:53;;;;;;;22.50;19.70;;;20.50;99.90;;;;;;5057854;28;20186;-74
2022/06/08 03:43:22;;;;;;;20.33;18.13;;;20.60;99.90;;;;;;5073468;28;20542;-75
2022/06/08 03:45:55;;;;;;;22.37;17.63;;;20.60;99.90;;;;;;5089711;28;20179;-75
2022/06/08 03:48:22;;;;;;;20.17;18.27;;;20.60;99.90;;;;;;5075271;28;20187;-74
2022/06/08 03:50:54;;;;;;;24.23;18.47;;;20.60;99.90;;;;;;5069669;28;20203;-74
2022/06/08 03:53:32;;;;;;;25.53;19.60;;;20.60;99.90;;;;;;5072629;28;20193;-74
2022/06/08 03:56:04;;;;;;;22.17;18.73;;;20.70;99.90;;;;;;5099165;28;20703;-75
2022/06/08 03:58:31;;;;;;;21.40;16.93;;;20.70;99.90;;;;;;5055233;28;20797;-74
2022/06/08 04:00:58;;;;;;;21.33;18.97;;;20.70;99.90;;;;;;5056104;28;20534;-74
2022/06/08 04:03:25;;;;;;;21.07;18.50;;;20.70;99.90;;;;;;5083223;28;20710;-74
2022/06/08 04:05:51;;;;;;;19.53;17.43;;;20.80;99.90;;;;;;5052811;28;20689;-74
2022/06/08 04:08:18;;;;;;;22.47;18.07;;;20.80;99.90;;;;;;5051319;28;20178;-74
2022/06/08 04:10:47;;;;;;;22.37;17.87;;;20.80;99.90;;;;;;5075059;28;20647;-74
2022/06/08 04:13:14;;;;;;;19.97;17.87;;;20.90;99.90;;;;;;5075094;28;20282;-75
2022/06/08 04:15:43;;;;;;;19.80;17.23;;;20.90;99.90;;;;;;5103351;28;20278;-74
2022/06/08 04:18:28;;;;;;;21.77;18.10;;;21.00;99.90;;;;;;5069832;28;20239;-74
2022/06/08 04:20:58;;;;;;;21.27;16.73;;;21.00;99.90;;;;;;5081592;28;20194;-74
2022/06/08 04:23:29;;;;;;;22.20;17.30;;;21.10;99.90;;;;;;5055577;28;20614;-73
2022/06/08 04:25:58;;;;;;;18.83;15.80;;;21.10;99.90;;;;;;5056117;28;20233;-74
2022/06/08 04:28:26;;;;;;;18.67;16.17;;;21.20;99.90;;;;;;5057198;28;20186;-74
2022/06/08 04:30:53;;;;;;;19.97;15.37;;;21.20;99.90;;;;;;5089283;28;20190;-74
2022/06/08 04:33:20;;;;;;;19.40;17.50;;;21.30;99.90;;;;;;5074113;28;20200;-74
2022/06/08 04:35:48;;;;;;;18.73;15.93;;;21.30;99.90;;;;;;5056344;28;23216;-74
2022/06/08 04:38:16;;;;;;;24.50;19.30;;;21.40;99.90;;;;;;5104072;28;20220;-74
2022/06/08 04:40:45;;;;;;;20.30;16.93;;;21.40;99.90;;;;;;5080337;28;20193;-74
2022/06/08 04:43:12;;;;;;;18.63;16.73;;;21.50;99.90;;;;;;5071044;28;20228;-74
2022/06/08 04:45:39;;;;;;;20.43;16.53;;;21.50;99.90;;;;;;5071781;28;20197;-74
2022/06/08 04:48:08;;;;;;;19.40;17.27;;;21.50;99.90;;;;;;5068301;28;20191;-74
2022/06/08 04:50:34;;;;;;;21.63;19.33;;;21.60;99.90;;;;;;5048315;28;20641;-74
2022/06/08 04:53:01;;;;;;;20.30;17.80;;;21.60;99.90;;;;;;5091037;28;20265;-74
2022/06/08 04:55:27;;;;;;;18.00;15.50;;;21.60;99.90;;;;;;5065333;28;20217;-75
2022/06/08 04:57:54;;;;;;;18.98;15.90;;;21.70;99.90;;;;;;5071977;28;20182;-75
2022/06/08 05:00:23;;;;;;;18.60;16.00;;;21.80;99.90;;;;;;5089819;28;20194;-74
2022/06/08 05:02:52;;;;;;;19.33;16.17;;;21.80;99.90;;;;;;5056924;28;20198;-74
2022/06/08 05:05:34;;;;;;;24.13;17.53;;;21.80;99.90;;;;;;5062941;28;20687;-74
2022/06/08 05:08:02;;;;;;;18.95;15.38;;;21.90;99.90;;;;;;5051919;28;20194;-74
2022/06/08 05:10:32;;;;;;;18.85;14.80;;;21.90;99.90;;;;;;5054558;28;20273;-74
2022/06/08 05:13:02;;;;;;;22.17;16.93;;;22.00;99.90;;;;;;5065954;28;20964;-74
2022/06/08 05:15:34;;;;;;;18.00;16.17;;;22.00;99.90;;;;;;5067197;28;20276;-74
2022/06/08 05:18:02;;;;;;;21.02;16.70;;;22.00;99.90;;;;;;5055503;28;20182;-74
2022/06/08 05:20:30;;;;;;;16.60;12.60;;;22.10;99.90;;;;;;5054691;28;20178;-74
2022/06/08 05:22:57;;;;;;;18.25;15.13;;;22.10;99.90;;;;;;5071603;28;20276;-74
2022/06/08 05:25:31;;;;;;;22.40;13.52;;;22.20;99.90;;;;;;5084977;28;20281;-74
2022/06/08 05:27:58;;;;;;;16.48;14.38;;;22.20;99.90;;;;;;5071866;28;20182;-75
2022/06/08 05:30:25;;;;;;;17.83;14.32;;;22.30;99.90;;;;;;5072880;28;20220;-74
2022/06/08 05:32:52;;;;;;;17.45;13.20;;;22.30;99.90;;;;;;5068795;28;20673;-74
2022/06/08 05:35:22;;;;;;;19.73;14.25;;;22.40;99.90;;;;;;5086381;28;20197;-75
2022/06/08 05:37:54;;;;;;;20.42;14.45;;;22.50;99.90;;;;;;5065011;28;20205;-74
2022/06/08 05:40:23;;;;;;;20.65;14.20;;;22.60;99.90;;;;;;5037275;28;20195;-74
2022/06/08 05:42:50;;;;;;;17.95;14.18;;;22.70;99.90;;;;;;5066811;28;20198;-74
2022/06/08 05:45:22;;;;;;;19.45;15.52;;;22.70;99.90;;;;;;5085633;28;20214;-75
2022/06/08 05:47:50;;;;;;;20.90;14.18;;;22.80;99.90;;;;;;5069711;28;20186;-74
2022/06/08 05:50:18;;;;;;;18.95;13.07;;;22.80;99.90;;;;;;5069660;28;20252;-75
2022/06/08 05:52:47;;;;;;;17.88;13.55;;;22.80;99.90;;;;;;5054013;28;20686;-74
2022/06/08 05:55:16;;;;;;;15.00;13.10;;;22.90;99.90;;;;;;5039807;28;20319;-75
2022/06/08 05:57:44;;;;;;;23.00;12.20;;;22.90;99.90;;;;;;5048167;28;20699;-75
2022/06/08 06:00:18;;;;;;;17.50;13.45;;;22.90;99.90;;;;;;5068431;28;20218;-74
2022/06/08 06:02:45;;;;;;;15.18;13.32;;;22.90;99.90;;;;;;5082295;28;20194;-74
2022/06/08 06:05:16;;;;;;;17.90;14.73;;;23.00;99.90;;;;;;5053647;28;20619;-74
2022/06/08 06:07:47;;;;;;;16.50;13.68;;;23.10;99.90;;;;;;5070945;28;20198;-74
2022/06/08 06:10:15;;;;;;;15.50;13.65;;;23.10;99.90;;;;;;5070706;28;20191;-74
2022/06/08 06:12:43;;;;;;;16.98;13.32;;;23.20;99.90;;;;;;5051064;28;20209;-74
2022/06/08 06:15:13;;;;;;;18.48;13.50;;;23.20;99.90;;;;;;5053731;28;20194;-74
2022/06/08 06:17:39;;;;;;;14.77;12.30;;;23.30;99.90;;;;;;5060633;28;20194;-74
2022/06/08 06:20:08;;;;;;;21.88;10.25;;;23.30;99.90;;;;;;5063497;28;20677;-75
2022/06/08 06:22:38;;;;;;;15.82;11.00;;;23.30;99.90;;;;;;5053867;28;20618;-75
2022/06/08 06:25:09;;;;;;;14.07;12.20;;;23.30;99.90;;;;;;5049946;28;20202;-74
2022/06/08 06:27:35;;;;;;;18.70;11.07;;;23.30;99.90;;;;;;5039816;28;20193;-74
2022/06/08 06:30:08;;;;;;;14.57;10.85;;;23.40;99.90;;;;;;5077734;28;20723;-75
2022/06/08 06:32:40;;;;;;;11.70;9.93;;;23.60;99.90;;;;;;5082740;28;20193;-75
2022/06/08 06:35:21;;;;;;;9.75;8.75;;;23.60;99.90;;;;;;5082879;28;20785;-74
2022/06/08 06:37:53;;;;;;;11.48;9.82;;;23.60;99.90;;;;;;5070786;28;20200;-74
2022/06/08 06:40:21;;;;;;;13.13;10.90;;;23.60;99.90;;;;;;5049014;28;20194;-74
2022/06/08 06:42:50;;;;;;;13.07;9.98;;;23.70;99.90;;;;;;5045051;28;20182;-75
2022/06/08 06:45:17;;;;;;;12.82;9.30;;;23.80;99.90;;;;;;5066232;28;20232;-74
2022/06/08 06:47:45;;;;;;;14.48;9.40;;;23.90;99.90;;;;;;5062673;28;20234;-75
2022/06/08 06:50:15;;;;;;;9.50;8.15;;;24.00;99.90;;;;;;5053365;28;20206;-75
2022/06/08 06:52:44;;;;;;;13.73;8.25;;;24.00;99.90;;;;;;5061840;28;20222;-75
2022/06/08 06:55:26;;;;;;;14.95;7.90;;;24.00;99.90;;;;;;5052201;28;20190;-75
2022/06/08 06:57:56;;;;;;;15.45;7.80;;;24.00;99.90;;;;;;5051391;28;20186;-75
2022/06/08 07:00:24;;;;;;;11.15;7.65;;;24.10;99.90;;;;;;5071733;28;20216;-74
2022/06/08 07:02:51;;;;;;;15.55;8.15;;;24.30;99.90;;;;;;5084780;28;20563;-74
2022/06/08 07:05:25;;;;;;;9.85;7.82;;;24.30;99.90;;;;;;5089066;28;20301;-75
2022/06/08 07:07:51;;;;;;;10.02;7.15;;;24.40;99.90;;;;;;5100776;28;20387;-75
2022/06/08 07:10:18;;;;;;;16.83;8.05;;;24.40;99.90;;;;;;5055716;28;20525;-74
2022/06/08 07:12:46;;;;;;;12.55;8.20;;;24.40;99.90;;;;;;5069744;28;20205;-75
2022/06/08 07:15:16;;;;;;;9.20;7.20;;;24.50;99.90;;;;;;5092142;28;20239;-75
2022/06/08 07:17:43;;;;;;;9.52;7.82;;;24.70;99.90;;;;;;5072316;28;20198;-75
2022/06/08 07:20:12;;;;;;;10.57;7.50;;;24.70;99.90;;;;;;5069256;28;20190;-74
2022/06/08 07:22:39;;;;;;;12.02;7.65;;;24.60;99.90;;;;;;5071286;28;20300;-75
2022/06/08 07:25:09;;;;;;;9.88;6.43;;;24.60;99.90;;;;;;5067188;28;20233;-74
2022/06/08 07:27:37;;;;;;;9.93;6.32;;;24.70;99.90;;;;;;5073094;28;20592;-75
2022/06/08 07:30:08;;;;;;;14.23;6.45;;;24.70;99.90;;;;;;5071319;28;20189;-74
2022/06/08 07:32:36;;;;;;;10.73;6.30;;;24.90;99.90;;;;;;5086644;28;20241;-74
2022/06/08 07:35:06;;;;;;;10.75;6.40;;;24.90;99.90;;;;;;5083827;28;20270;-75
2022/06/08 07:37:33;;;;;;;9.07;6.28;;;24.90;99.90;;;;;;5089862;28;20194;-74
2022/06/08 07:39:59;;;;;;;12.73;6.60;;;25.00;99.90;;;;;;5072407;28;20188;-74
2022/06/08 07:42:26;;;;;;;11.63;6.35;;;25.10;99.90;;;;;;5080887;28;20194;-74
2022/06/08 07:44:53;;;;;;;7.63;6.22;;;25.20;99.90;;;;;;5072900;28;20692;-74
2022/06/08 07:47:20;;;;;;;9.77;5.88;;;25.20;99.90;;;;;;5052689;28;20228;-74
2022/06/08 07:49:51;;;;;;;14.02;7.13;;;25.20;99.90;;;;;;5077738;28;20189;-74
2022/06/08 07:52:21;;;;;;;14.43;9.27;;;25.30;99.90;;;;;;5085441;28;20178;-74
2022/06/08 07:54:49;;;;;;;15.02;10.18;;;25.40;99.90;;;;;;5071569;28;20530;-74
2022/06/08 07:57:25;;;;;;;18.50;9.82;;;25.40;99.90;;;;;;5054864;28;20207;-74
2022/06/08 07:59:53;;;;;;;14.95;10.27;;;25.50;99.90;;;;;;5071712;28;20197;-74
2022/06/08 08:02:21;;;;;;;20.30;10.13;;;25.70;99.90;;;;;;5069781;28;20204;-74
2022/06/08 08:04:47;;;;;;;14.65;9.70;;;25.80;99.90;;;;;;5082494;28;20236;-74
2022/06/08 08:07:14;;;;;;;13.50;9.55;;;25.90;99.90;;;;;;5049593;28;20265;-75
2022/06/08 08:09:41;;;;;;;17.15;11.00;;;25.90;99.90;;;;;;5069635;28;20213;-75
2022/06/08 08:12:11;;;;;;;14.48;10.10;;;25.90;99.90;;;;;;5070420;28;20924;-75
2022/06/08 08:14:38;;;;;;;14.80;10.45;;;25.90;99.90;;;;;;5048837;28;20190;-75
2022/06/08 08:17:05;;;;;;;14.38;9.75;;;25.80;99.90;;;;;;5081314;28;20193;-72
2022/06/08 08:19:34;;;;;;;18.35;11.02;;;25.70;99.90;;;;;;5054278;28;20190;-74
2022/06/08 08:22:02;;;;;;;13.82;10.45;;;25.60;99.90;;;;;;5069823;28;20243;-75
2022/06/08 08:24:30;;;;;;;14.73;10.52;;;25.40;99.90;;;;;;5051639;28;20213;-72
2022/06/08 08:26:57;;;;;;;18.40;10.73;;;25.60;99.90;;;;;;5057968;28;20255;-73
2022/06/08 08:29:24;;;;;;;14.05;10.80;;;25.70;99.90;;;;;;5071879;28;20273;-73
2022/06/08 08:31:50;;;;;;;15.52;11.23;;;25.80;99.90;;;;;;5083406;28;20247;-74
2022/06/08 08:34:18;;;;;;;18.08;10.23;;;25.80;99.90;;;;;;5064061;28;20700;-73
2022/06/08 08:36:45;;;;;;;12.75;10.18;;;25.90;99.90;;;;;;5083088;28;20191;-72
2022/06/08 08:39:12;;;;;;;16.58;10.57;;;26.00;99.90;;;;;;5068790;28;20478;-73
2022/06/08 08:44:48;;;;;;;16.67;10.00;;;26.30;99.90;;;;;;5068074;28;20202;-73
2022/06/08 08:47:36;;;;;;;14.80;10.48;;;26.30;99.90;;;;;;5036489;28;20179;-74
2022/06/08 08:50:32;;;;;;;15.88;9.98;;;26.00;99.90;;;;;;5066314;28;20243;-73
2022/06/08 08:53:26;;;;;;;17.60;10.85;;;25.80;99.90;;;;;;5083362;28;20179;-73
2022/06/08 08:56:08;;;;;;;13.98;10.25;;;25.90;99.90;;;;;;5085177;28;20189;-73
2022/06/08 08:58:40;;;;;;;15.88;10.88;;;26.30;99.90;;;;;;5073703;28;20201;-73
2022/06/08 09:01:25;;;;;;;12.85;10.05;;;26.50;99.90;;;;;;5062375;28;20185;-73
2022/06/08 09:04:04;;;;;;;18.77;10.90;;;26.70;99.90;;;;;;5075468;28;20210;-73
2022/06/08 09:06:35;;;;;;;17.80;10.30;;;26.70;99.90;;;;;;5054665;28;20183;-73
2022/06/08 09:09:12;;;;;;;17.15;10.65;;;26.70;99.90;;;;;;5050419;28;20190;-72
2022/06/08 09:11:43;;;;;;;16.20;9.98;;;26.80;99.90;;;;;;5075137;28;20235;-73
2022/06/08 09:14:58;;;;;;;11.70;9.60;;;26.80;99.90;;;;;;5070047;28;20662;-73
2022/06/08 09:17:40;;;;;;;18.90;9.82;;;27.00;99.90;;;;;;5086101;28;20243;-72
2022/06/08 09:20:36;;;;;;;19.13;9.65;;;27.10;99.90;;;;;;5093537;28;20188;-73
2022/06/08 09:23:28;;;;;;;17.95;11.15;;;26.90;99.90;;;;;;5073003;28;20233;-73
2022/06/08 09:26:16;;;;;;;17.13;10.10;;;26.50;99.90;;;;;;5053867;28;20225;-73
2022/06/08 09:28:43;;;;;;;17.02;10.13;;;26.50;99.90;;;;;;5047774;28;20658;-72
2022/06/08 09:31:33;;;;;;;16.02;9.95;;;26.70;99.90;;;;;;5068696;28;20193;-72
2022/06/08 09:34:14;;;;;;;16.17;9.15;;;27.10;99.90;;;;;;5085537;28;20669;-73
2022/06/08 09:36:42;;;;;;;15.07;9.13;;;27.30;99.90;;;;;;5063336;28;20255;-73
2022/06/08 09:39:15;;;;;;;17.55;9.70;;;27.60;99.90;;;;;;5098293;28;20198;-73
2022/06/08 09:41:48;;;;;;;13.38;8.35;;;27.70;99.90;;;;;;5084996;28;20194;-73
2022/06/08 09:44:32;;;;;;;13.85;8.95;;;27.60;99.90;;;;;;5066694;28;20342;-73
2022/06/08 09:53:34;;;;;;;11.80;8.45;;;27.30;99.90;;;;;;5065436;28;20182;-73
2022/06/08 09:56:24;;;;;;;17.02;9.25;;;27.00;99.90;;;;;;5062577;28;20233;-74
2022/06/08 09:59:20;;;;;;;14.02;8.35;;;27.20;99.90;;;;;;5071164;28;20187;-74
2022/06/08 10:02:04;;;;;;;11.90;8.05;;;27.50;99.90;;;;;;5058984;28;20528;-73
2022/06/08 10:05:04;;;;;;;12.40;7.65;;;27.40;99.90;;;;;;5088256;28;20201;-73
2022/06/08 10:08:10;;;;;;;14.48;8.40;;;27.00;99.90;;;;;;5067343;28;20178;-73
2022/06/08 10:11:33;;;;;;;16.23;7.80;;;26.80;99.90;;;;;;5063975;28;20224;-72
2022/06/08 10:13:55;;;;;;;11.63;8.23;;;26.70;99.90;;;;;;5067355;28;20198;-73
2022/06/08 10:16:29;;;;;;;16.13;9.25;;;26.90;99.90;;;;;;5067778;28;20198;-72
2022/06/08 10:19:05;;;;;;;16.23;7.97;;;27.20;99.90;;;;;;5046251;28;20281;-73
2022/06/08 10:21:44;;;;;;;15.18;7.93;;;27.40;99.90;;;;;;5079231;28;20620;-73
2022/06/08 10:24:30;;;;;;;13.27;7.70;;;27.10;99.90;;;;;;5050708;28;20776;-73
2022/06/08 10:27:12;;;;;;;15.13;7.63;;;27.00;99.90;;;;;;5083681;28;20190;-73
2022/06/08 10:30:19;;;;;;;18.95;8.40;;;26.60;99.90;;;;;;5066240;28;20193;-73
2022/06/08 10:33:13;;;;;;;15.30;8.65;;;26.40;99.90;;;;;;5083972;28;20186;-73
2022/06/08 10:35:53;;;;;;;16.25;8.50;;;26.30;99.90;;;;;;5071502;28;20212;-73
2022/06/08 10:38:30;;;;;;;13.55;9.52;;;26.30;99.90;;;;;;5065713;28;20254;-73
2022/06/08 10:44:44;;;;;;;14.27;8.30;;;26.90;99.90;;;;;;5078027;28;20209;-73
2022/06/08 10:47:13;;;;;;;12.68;8.25;;;27.00;99.90;;;;;;5084354;28;20194;-73
2022/06/08 10:49:40;;;;;;;13.90;8.25;;;26.90;99.90;;;;;;5071011;28;20179;-73
2022/06/08 10:52:47;;;;;;;13.55;8.25;;;26.70;99.90;;;;;;5057582;28;20205;-73
2022/06/08 10:55:19;;;;;;;14.55;5.90;;;26.50;99.90;;;;;;5076085;28;20274;-73
2022/06/08 10:57:50;;;;;;;14.95;4.68;;;26.60;99.90;;;;;;5093990;28;20793;-73
2022/06/08 11:00:19;;;;;;;13.43;4.72;;;26.80;99.90;;;;;;5065682;28;20281;-73
2022/06/08 11:03:03;;;;;;;13.38;4.93;;;26.90;99.90;;;;;;5074232;28;20241;-73
2022/06/08 11:05:42;;;;;;;15.55;5.05;;;27.10;99.90;;;;;;5071704;28;20213;-72
2022/06/08 11:08:09;;;;;;;18.23;4.25;;;27.40;99.90;;;;;;5068205;28;20476;-72
2022/06/08 11:10:47;;;;;;;12.93;4.10;;;27.30;99.90;;;;;;5064821;28;20249;-72
2022/06/08 11:13:22;;;;;;;14.27;4.32;;;27.20;99.90;;;;;;5053580;28;20528;-73
2022/06/08 11:16:11;;;;;;;15.20;4.93;;;27.10;99.90;;;;;;5067617;28;20671;-73
2022/06/08 11:19:02;;;;;;;12.40;4.38;;;27.00;99.90;;;;;;5078974;28;21020;-74
2022/06/08 11:22:00;;;;;;;14.77;4.97;;;26.90;99.90;;;;;;5080777;28;20399;-73
2022/06/08 11:24:35;;;;;;;16.85;4.90;;;26.90;99.90;;;;;;5069331;28;20309;-73
2022/06/08 11:27:11;;;;;;;18.20;5.07;;;27.00;99.90;;;;;;5080794;28;20600;-74
2022/06/08 11:29:51;;;;;;;13.63;4.60;;;27.10;99.90;;;;;;5058154;28;20213;-73
2022/06/08 11:33:10;;;;;;;19.92;4.85;;;27.10;99.90;;;;;;5067516;28;20197;-73
2022/06/08 11:35:55;;;;;;;16.30;5.38;;;27.10;99.90;;;;;;5097160;28;20189;-73
2022/06/08 11:38:54;;;;;;;15.25;4.57;;;27.30;99.90;;;;;;5059455;28;20201;-73
2022/06/08 11:41:27;;;;;;;21.83;5.10;;;27.30;99.90;;;;;;5077205;28;20254;-73
2022/06/08 11:44:01;;;;;;;15.95;5.22;;;27.30;99.90;;;;;;5047651;28;20214;-73
2022/06/08 11:46:42;;;;;;;20.95;4.90;;;27.30;99.90;;;;;;5044969;28;20618;-74
2022/06/08 11:49:44;;;;;;;13.57;5.10;;;27.40;99.90;;;;;;5081146;28;20243;-74
2022/06/08 11:52:34;;;;;;;18.42;4.60;;;27.40;99.90;;;;;;5085671;28;20186;-73
2022/06/08 11:55:17;;;;;;;105.82;8.65;;;27.30;99.90;;;;;;5048957;28;20198;-74
2022/06/08 11:57:51;;;;;;;18.25;5.47;;;27.20;99.90;;;;;;5073159;28;20194;-74
2022/06/08 12:00:52;;;;;;;14.25;4.75;;;27.30;99.90;;;;;;5064603;28;20239;-73
2022/06/08 12:03:42;;;;;;;13.93;4.38;;;27.30;99.90;;;;;;5060301;28;20198;-73
2022/06/08 12:06:39;;;;;;;14.68;4.85;;;27.20;99.90;;;;;;5062820;28;20229;-72
2022/06/08 12:09:32;;;;;;;10.25;3.83;;;27.20;99.90;;;;;;5055681;28;20182;-73
2022/06/08 12:12:21;;;;;;;19.02;4.68;;;27.20;99.90;;;;;;5089526;28;20182;-73
2022/06/08 12:14:47;;;;;;;10.90;4.07;;;27.00;99.90;;;;;;5065399;28;20766;-73
2022/06/08 12:17:14;;;;;;;13.90;4.70;;;27.10;99.90;;;;;;5068282;28;20277;-74
2022/06/08 12:19:55;;;;;;;10.15;3.70;;;27.10;99.90;;;;;;5077503;28;20915;-74
2022/06/08 12:22:35;;;;;;;11.05;4.00;;;27.20;99.90;;;;;;5067389;28;20198;-74
2022/06/08 12:25:18;;;;;;;14.52;4.25;;;27.30;99.90;;;;;;5052012;28;20586;-74
2022/06/08 12:28:09;;;;;;;12.60;3.60;;;27.30;99.90;;;;;;5067630;28;20221;-73
2022/06/08 12:30:44;;;;;;;108.20;7.05;;;27.30;99.90;;;;;;5072339;28;20198;-74
2022/06/08 12:33:14;;;;;;;10.30;3.92;;;27.30;99.90;;;;;;5065006;28;20281;-74
2022/06/08 12:36:15;;;;;;;14.68;4.10;;;27.20;99.90;;;;;;5058637;28;20274;-75
2022/06/08 12:39:14;;;;;;;10.57;3.58;;;27.20;99.90;;;;;;5064146;28;20230;-74
2022/06/08 12:41:55;;;;;;;12.13;3.42;;;27.10;99.90;;;;;;5068598;28;20793;-73
2022/06/08 12:44:26;;;;;;;8.88;3.33;;;27.20;99.90;;;;;;5045785;28;20678;-74
2022/06/08 12:47:18;;;;;;;11.15;3.50;;;27.10;99.90;;;;;;5049937;28;20277;-73
2022/06/08 12:49:59;;;;;;;9.48;3.28;;;27.20;99.90;;;;;;5079757;28;20256;-74
2022/06/08 12:52:36;;;;;;;10.95;3.25;;;27.10;99.90;;;;;;5066756;28;20217;-74
2022/06/08 12:55:16;;;;;;;9.27;3.67;;;27.10;99.90;;;;;;5066835;28;20288;-74
2022/06/08 12:57:44;;;;;;;9.40;2.97;;;27.10;99.90;;;;;;5070618;28;20270;-74
2022/06/08 13:00:23;;;;;;;12.27;3.15;;;27.10;99.90;;;;;;5071327;28;20189;-74
2022/06/08 13:02:51;;;;;;;11.48;3.53;;;27.10;99.90;;;;;;5072746;28;20183;-74
2022/06/08 13:05:24;;;;;;;9.25;3.28;;;27.10;99.90;;;;;;5069848;28;20206;-74
2022/06/08 13:07:54;;;;;;;7.13;3.20;;;27.10;99.90;;;;;;5076116;28;20194;-74
2022/06/08 13:10:24;;;;;;;9.15;3.60;;;27.10;99.90;;;;;;5070435;28;20197;-74
2022/06/08 13:12:55;;;;;;;13.48;4.10;;;27.10;99.90;;;;;;5068497;28;20864;-74
2022/06/08 13:15:30;;;;;;;9.27;3.65;;;27.10;99.90;;;;;;5061075;28;20178;-73
2022/06/08 13:17:58;;;;;;;5.18;3.33;;;27.00;99.90;;;;;;5079309;28;20272;-74
2022/06/08 13:20:37;;;;;;;9.27;3.53;;;27.10;99.90;;;;;;5069717;28;20187;-74
2022/06/08 13:23:05;;;;;;;10.77;3.70;;;27.10;99.90;;;;;;5079937;28;20216;-74
2022/06/08 13:25:33;;;;;;;11.40;3.97;;;27.10;99.90;;;;;;5076907;28;20586;-73
2022/06/08 13:28:01;;;;;;;9.27;4.20;;;27.10;99.90;;;;;;5072684;28;20190;-74
2022/06/08 13:30:33;;;;;;;8.70;4.07;;;27.00;99.90;;;;;;5067357;28;20281;-74